Time;durP1;ratioP1;P1;durP2;ratioP2;P2;SDS_P1;SDS_P2;PMS_P1;PMS_P2;Temp;Humidity;BMP_temperature;BMP_pressure;BME280_temperature;BME280_humidity;BME280_pressure;Samples;Min_cycle;Max_cycle;Signal;HPM_P1;HPM_P2
2022/05/28 09:44:18;;;;;;;1.10;0.57;;;24.40;40.10;;;;;;4835841;29;89240;-72
2022/05/28 09:46:46;;;;;;;5.63;0.67;;;24.30;39.90;;;;;;4864156;29;88955;-71
2022/05/28 09:49:17;;;;;;;0.97;0.50;;;24.30;39.90;;;;;;4857573;29;90820;-71
2022/05/28 09:51:55;;;;;;;2.70;0.83;;;24.30;39.90;;;;;;4865696;29;89083;-71
2022/05/28 10:50:12;;;;;;;2.07;0.50;;;23.80;38.60;;;;;;4831259;29;89729;-71
2022/05/28 10:52:46;;;;;;;3.37;1.07;;;23.80;39.10;;;;;;4848002;29;89156;-71
2022/05/28 10:55:17;;;;;;;2.13;0.90;;;23.90;38.50;;;;;;4862575;23;90149;-63
2022/05/28 10:58:11;;;;;;;3.67;1.93;;;24.00;38.50;;;;;;4859679;29;89144;-64
2022/05/28 11:00:43;;;;;;;1.97;1.63;;;23.90;38.40;;;;;;4856815;29;88708;-64
2022/05/28 11:03:57;;;;;;;4.03;1.73;;;24.00;38.30;;;;;;4864457;29;90700;-65
2022/05/28 11:06:57;;;;;;;3.43;1.63;;;24.00;38.20;;;;;;4806238;29;90656;-64
2022/05/28 11:09:33;;;;;;;4.60;1.80;;;24.00;38.10;;;;;;4858506;29;89080;-66
2022/05/28 11:12:06;;;;;;;2.93;1.70;;;24.00;37.90;;;;;;4865142;29;89051;-66
2022/05/28 11:14:54;;;;;;;2.87;1.63;;;24.10;38.10;;;;;;4865338;29;90783;-66
2022/05/28 11:17:30;;;;;;;8.43;2.00;;;24.20;38.30;;;;;;4865078;29;90084;-66
2022/05/28 11:20:08;;;;;;;3.07;1.83;;;24.30;38.30;;;;;;4858613;29;88370;-66
2022/05/28 11:22:44;;;;;;;1.97;1.60;;;24.40;38.30;;;;;;4865351;29;88438;-66
2022/05/28 11:25:16;;;;;;;2.57;1.50;;;24.40;38.40;;;;;;4862632;29;93126;-66
2022/05/28 11:28:07;;;;;;;3.90;2.00;;;24.50;38.40;;;;;;4867044;29;90138;-67
2022/05/28 11:30:36;;;;;;;7.33;4.13;;;24.60;38.60;;;;;;4863309;29;89880;-66
2022/05/28 11:33:06;;;;;;;22.40;13.60;;;24.60;38.70;;;;;;4864936;29;89656;-66
2022/05/28 11:35:38;;;;;;;81.77;43.63;;;24.80;38.90;;;;;;4864343;29;90665;-65
2022/05/28 11:38:10;;;;;;;74.10;36.50;;;24.90;39.20;;;;;;4863221;29;90157;-66
2022/05/28 11:40:53;;;;;;;42.97;23.17;;;24.90;39.30;;;;;;4864080;29;89069;-66
2022/05/28 11:43:23;;;;;;;40.83;20.07;;;25.00;39.40;;;;;;4865918;29;88612;-66
2022/05/28 11:45:54;;;;;;;40.63;18.60;;;25.00;39.40;;;;;;4870802;29;90633;-67
2022/05/28 11:48:25;;;;;;;38.33;19.83;;;25.10;39.40;;;;;;4866164;29;89599;-66
2022/05/28 11:53:44;;;;;;;25.43;13.07;;;25.10;39.60;;;;;;4856243;29;88668;-66
2022/05/28 11:56:15;;;;;;;22.60;12.40;;;25.20;39.70;;;;;;4849846;29;90661;-66
2022/05/28 11:58:45;;;;;;;19.87;11.60;;;25.20;39.80;;;;;;4852414;29;90057;-66
2022/05/28 12:01:15;;;;;;;17.47;11.07;;;25.20;39.80;;;;;;4859511;29;88910;-66
2022/05/28 12:03:43;;;;;;;17.57;9.23;;;25.20;39.80;;;;;;4860655;29;88490;-67
2022/05/28 12:06:19;;;;;;;19.30;9.27;;;25.20;39.80;;;;;;4849535;29;90977;-66
2022/05/28 12:08:50;;;;;;;11.27;7.57;;;25.20;39.80;;;;;;4858163;29;90350;-66
2022/05/28 12:11:37;;;;;;;11.87;7.23;;;25.30;40.00;;;;;;4848537;29;92559;-66
2022/05/28 12:14:06;;;;;;;11.70;6.43;;;25.20;40.00;;;;;;4858633;29;88911;-66
2022/05/28 12:16:36;;;;;;;8.57;5.40;;;25.30;40.00;;;;;;4852061;29;90646;-66
2022/05/28 12:19:07;;;;;;;12.57;5.57;;;25.30;40.10;;;;;;4855412;29;89006;-66
2022/05/28 12:21:36;;;;;;;11.20;5.70;;;25.30;40.10;;;;;;4856798;29;90030;-66
2022/05/28 12:24:07;;;;;;;8.57;5.07;;;25.30;40.10;;;;;;4863446;29;88624;-66
2022/05/28 12:26:49;;;;;;;8.90;4.93;;;25.30;40.20;;;;;;4862948;29;90756;-64
2022/05/28 12:29:34;;;;;;;9.17;5.00;;;25.30;40.20;;;;;;4857210;29;92734;-67
2022/05/28 12:32:15;;;;;;;12.53;4.17;;;25.30;40.20;;;;;;4851473;29;88816;-66
2022/05/28 12:34:52;;;;;;;6.50;4.07;;;25.30;40.30;;;;;;4849720;29;89496;-66
2022/05/28 12:37:21;;;;;;;6.70;3.97;;;25.30;40.30;;;;;;4863142;29;90747;-67
2022/05/28 12:39:54;;;;;;;6.57;3.50;;;25.40;40.50;;;;;;4862545;29;91169;-67
2022/05/28 12:42:30;;;;;;;8.13;3.30;;;25.40;40.40;;;;;;4857535;29;88927;-67
2022/05/28 12:45:13;;;;;;;5.40;3.17;;;25.40;40.40;;;;;;4863790;29;89729;-66
2022/05/28 12:47:41;;;;;;;6.40;3.77;;;25.40;40.50;;;;;;4853776;29;90610;-67
2022/05/28 12:50:14;;;;;;;6.67;3.23;;;25.50;40.50;;;;;;4848350;29;90132;-66
2022/05/28 12:52:43;;;;;;;7.77;3.27;;;25.50;40.50;;;;;;4847658;29;88786;-66
2022/05/28 12:55:21;;;;;;;6.30;2.77;;;25.50;40.50;;;;;;4852024;29;88637;-66
2022/05/28 12:58:02;;;;;;;5.03;2.67;;;25.50;40.50;;;;;;4862437;29;91145;-66
2022/05/28 13:00:34;;;;;;;6.37;3.57;;;25.50;40.50;;;;;;4856358;29;89091;-66
2022/05/28 13:03:02;;;;;;;6.23;3.00;;;25.50;40.40;;;;;;4863871;29;88264;-65
2022/05/28 13:05:32;;;;;;;5.60;2.57;;;25.60;40.50;;;;;;4864006;29;88661;-66
2022/05/28 13:08:03;;;;;;;4.73;2.70;;;25.60;40.50;;;;;;4862153;29;90994;-67
2022/05/28 13:10:32;;;;;;;4.37;2.73;;;25.60;40.40;;;;;;4856697;29;89956;-66
2022/05/28 13:13:08;;;;;;;3.93;2.80;;;25.60;40.40;;;;;;4863731;29;89882;-69
2022/05/28 13:15:49;;;;;;;3.20;2.37;;;25.60;41.00;;;;;;4863401;29;88663;-66
2022/05/28 13:18:31;;;;;;;4.23;2.67;;;25.60;40.30;;;;;;4858751;28;90622;-67
2022/05/28 13:21:11;;;;;;;5.20;3.40;;;25.60;40.30;;;;;;4859529;29;90202;-66
2022/05/28 13:23:47;;;;;;;6.50;2.60;;;25.70;40.40;;;;;;4864319;29;88461;-66
2022/05/28 13:26:44;;;;;;;4.33;3.00;;;25.70;40.30;;;;;;4864566;29;88505;-66
2022/05/28 13:29:38;;;;;;;6.70;2.80;;;25.70;40.30;;;;;;4850786;29;90691;-67
2022/05/28 13:32:08;;;;;;;5.20;2.90;;;25.70;40.30;;;;;;4855916;28;90149;-67
2022/05/28 13:34:36;;;;;;;5.43;3.13;;;25.70;40.30;;;;;;4863936;29;88912;-67
2022/05/28 13:37:05;;;;;;;5.57;2.97;;;25.70;40.30;;;;;;4863850;29;88494;-67
2022/05/28 13:39:33;;;;;;;6.20;2.90;;;25.70;40.30;;;;;;4848155;29;90646;-66
2022/05/28 13:42:01;;;;;;;5.20;2.70;;;25.70;40.20;;;;;;4845416;29;90504;-66
2022/05/28 13:44:30;;;;;;;4.40;2.97;;;25.80;40.20;;;;;;4845292;29;88873;-66
2022/05/28 13:46:59;;;;;;;5.00;2.90;;;25.80;40.20;;;;;;4845842;29;88461;-67
2022/05/28 13:49:28;;;;;;;4.33;3.07;;;25.80;40.20;;;;;;4855193;29;90705;-66
2022/05/28 13:51:58;;;;;;;5.20;3.40;;;25.80;40.10;;;;;;4851799;28;90089;-67
2022/05/28 13:54:26;;;;;;;4.03;3.07;;;25.90;40.10;;;;;;4863018;29;89073;-66
2022/05/28 13:56:56;;;;;;;7.13;2.77;;;25.90;40.10;;;;;;4864327;29;88677;-66
2022/05/28 13:59:49;;;;;;;4.63;2.63;;;25.90;40.10;;;;;;4863623;29;90747;-66
2022/05/28 14:02:20;;;;;;;8.60;2.83;;;25.90;40.20;;;;;;4862608;29;89093;-66
2022/05/28 14:04:49;;;;;;;5.00;2.77;;;25.70;40.10;;;;;;4864382;29;89246;-66
2022/05/28 14:07:24;;;;;;;6.00;3.53;;;25.90;40.20;;;;;;4867723;29;88514;-66
2022/05/28 14:09:52;;;;;;;6.00;2.30;;;25.90;40.20;;;;;;4867271;29;90701;-65
2022/05/28 14:12:20;;;;;;;6.40;2.50;;;25.90;40.30;;;;;;4859308;29;90016;-66
2022/05/28 14:14:51;;;;;;;4.57;2.53;;;26.00;40.40;;;;;;4870611;29;88439;-66
2022/05/28 14:17:25;;;;;;;3.13;2.50;;;26.00;40.40;;;;;;4854546;29;88726;-65
2022/05/28 14:19:55;;;;;;;3.77;2.40;;;25.90;40.40;;;;;;4862201;29;90716;-66
2022/05/28 14:22:31;;;;;;;3.77;2.33;;;25.90;40.40;;;;;;4853014;29;90253;-66
2022/05/28 14:24:59;;;;;;;4.37;2.10;;;26.00;40.50;;;;;;4856892;29;88570;-65
2022/05/28 14:27:47;;;;;;;5.00;2.33;;;26.00;40.60;;;;;;4858472;29;88576;-65
2022/05/28 14:30:18;;;;;;;4.20;2.30;;;26.00;40.60;;;;;;4858182;29;90627;-65
2022/05/28 14:32:47;;;;;;;4.83;2.50;;;26.00;40.60;;;;;;4861992;29;89023;-66
2022/05/28 14:35:22;;;;;;;3.90;2.27;;;26.00;40.60;;;;;;4863113;29;89014;-65
2022/05/28 14:38:00;;;;;;;4.20;1.90;;;26.10;40.70;;;;;;4869874;29;88550;-66
2022/05/28 14:40:28;;;;;;;2.63;1.90;;;26.10;40.60;;;;;;4866514;29;90703;-66
2022/05/28 14:42:56;;;;;;;5.03;2.40;;;26.20;40.60;;;;;;4867031;29;89625;-65
2022/05/28 14:45:27;;;;;;;3.63;2.17;;;26.20;40.70;;;;;;4856263;29;89129;-66
2022/05/28 14:47:56;;;;;;;3.83;2.03;;;26.20;40.70;;;;;;4866268;29;88716;-66
2022/05/28 14:50:27;;;;;;;3.43;2.10;;;26.20;40.70;;;;;;4867669;29;90803;-70
2022/05/28 14:52:55;;;;;;;7.13;2.27;;;26.20;40.80;;;;;;4863967;29;89013;-66
2022/05/28 14:55:29;;;;;;;3.07;1.60;;;26.30;40.80;;;;;;4867198;29;89933;-64
2022/05/28 14:58:04;;;;;;;2.77;1.70;;;26.30;40.80;;;;;;4861509;28;88515;-67
2022/05/28 15:00:37;;;;;;;3.67;2.00;;;26.30;40.80;;;;;;4859515;29;89500;-66
2022/05/28 15:03:09;;;;;;;5.93;2.07;;;26.30;41.50;;;;;;4866081;29;90458;-67
2022/05/28 15:05:37;;;;;;;2.77;1.60;;;26.30;41.00;;;;;;4865820;29;88886;-67
2022/05/28 15:08:06;;;;;;;3.63;2.70;;;26.30;41.00;;;;;;4857074;29;88325;-64
2022/05/28 15:10:40;;;;;;;6.43;3.00;;;26.30;41.20;;;;;;4865660;29;90748;-65
2022/05/28 15:13:10;;;;;;;11.43;5.13;;;26.40;41.30;;;;;;4864805;29;90120;-66
2022/05/28 15:15:39;;;;;;;13.50;4.87;;;26.50;41.50;;;;;;4864496;28;89009;-65
2022/05/28 15:18:07;;;;;;;21.43;7.93;;;26.50;41.60;;;;;;4860957;29;88489;-66
2022/05/28 15:20:35;;;;;;;41.03;14.10;;;26.60;41.90;;;;;;4857260;29;90747;-65
2022/05/28 15:23:03;;;;;;;37.33;13.40;;;26.60;42.30;;;;;;4863041;29;90416;-66
2022/05/28 15:25:31;;;;;;;26.90;11.03;;;26.70;43.40;;;;;;4864301;29;88972;-66
2022/05/28 15:28:01;;;;;;;44.90;15.57;;;26.70;43.00;;;;;;4863549;29;88555;-66
2022/05/28 15:30:29;;;;;;;46.07;14.70;;;26.80;43.30;;;;;;4864824;29;90457;-65
2022/05/28 15:32:58;;;;;;;47.80;17.13;;;26.80;43.60;;;;;;4864465;28;88965;-65
2022/05/28 15:38:16;;;;;;;31.17;14.93;;;26.90;44.00;;;;;;4863405;28;88399;-65
2022/05/28 15:40:44;;;;;;;33.73;14.83;;;26.80;44.10;;;;;;4869836;29;89444;-66
2022/05/28 15:43:12;;;;;;;27.73;12.17;;;26.80;44.20;;;;;;4865479;29;90462;-65
2022/05/28 15:45:44;;;;;;;30.00;12.60;;;26.80;44.30;;;;;;4864451;29;89865;-63
2022/05/28 15:48:14;;;;;;;24.53;12.17;;;26.80;44.30;;;;;;4863818;29;88602;-66
2022/05/28 15:50:42;;;;;;;21.97;10.13;;;26.70;44.20;;;;;;4864255;29;90804;-66
2022/05/28 15:53:10;;;;;;;22.17;10.30;;;26.70;44.20;;;;;;4864146;29;89980;-64
2022/05/28 15:55:39;;;;;;;19.27;9.67;;;26.70;44.10;;;;;;4864086;29;88468;-66
2022/05/28 15:58:14;;;;;;;16.83;7.97;;;26.70;44.10;;;;;;4861386;29;88451;-65
2022/05/28 16:00:42;;;;;;;17.37;7.73;;;26.70;43.90;;;;;;4864591;29;90738;-65
2022/05/28 16:03:10;;;;;;;14.67;7.57;;;26.70;43.90;;;;;;4863447;29;90255;-65
2022/05/28 16:05:39;;;;;;;15.47;7.73;;;26.60;43.70;;;;;;4853432;29;89040;-65
2022/05/28 16:08:21;;;;;;;16.30;7.67;;;26.60;43.70;;;;;;4859836;29;88598;-66
2022/05/28 16:10:50;;;;;;;9.43;5.67;;;26.60;43.60;;;;;;4847058;29;90679;-65
2022/05/28 16:13:19;;;;;;;13.30;6.10;;;26.60;43.50;;;;;;4846133;29;90030;-65
2022/05/28 16:15:48;;;;;;;11.20;5.70;;;26.60;43.50;;;;;;4857702;29;88471;-65
2022/05/28 16:18:17;;;;;;;13.23;6.40;;;26.60;43.40;;;;;;4859068;29;88577;-65
2022/05/28 16:20:46;;;;;;;10.63;5.50;;;26.60;43.40;;;;;;4859382;29;90746;-64
2022/05/28 16:23:16;;;;;;;12.93;5.67;;;26.60;43.30;;;;;;4852232;29;90231;-65
2022/05/28 16:25:45;;;;;;;10.93;5.83;;;26.60;43.40;;;;;;4847450;29;88522;-65
2022/05/28 16:28:13;;;;;;;10.30;5.53;;;26.60;43.40;;;;;;4847376;29;88703;-65
2022/05/28 16:30:41;;;;;;;12.73;5.70;;;26.50;43.50;;;;;;4866905;29;90700;-64
2022/05/28 16:33:09;;;;;;;13.23;6.50;;;26.50;43.50;;;;;;4858189;29;90044;-65
2022/05/28 16:35:37;;;;;;;12.50;6.47;;;26.50;43.70;;;;;;4857753;29;88549;-64
2022/05/28 16:38:07;;;;;;;12.80;6.53;;;26.50;43.90;;;;;;4863239;29;88601;-64
2022/05/28 16:40:35;;;;;;;12.50;6.87;;;26.50;44.00;;;;;;4855419;29;90679;-65
2022/05/28 16:43:09;;;;;;;13.40;6.97;;;26.50;44.00;;;;;;4861692;29;89780;-65
2022/05/28 16:45:37;;;;;;;17.47;6.60;;;26.50;44.10;;;;;;4860871;28;88740;-65
2022/05/28 16:48:06;;;;;;;11.03;6.10;;;26.50;44.10;;;;;;4859200;29;88857;-65
2022/05/28 16:50:34;;;;;;;11.73;6.53;;;26.50;44.10;;;;;;4861653;29;90729;-68
2022/05/28 16:53:04;;;;;;;13.50;6.63;;;26.50;44.10;;;;;;4863486;29;90241;-67
2022/05/28 16:55:33;;;;;;;11.93;6.37;;;26.50;44.10;;;;;;4863843;29;89403;-67
2022/05/28 16:58:02;;;;;;;14.53;6.20;;;26.50;44.10;;;;;;4863450;29;88456;-67
2022/05/28 17:00:30;;;;;;;17.00;6.70;;;26.50;44.10;;;;;;4863835;29;90722;-67
2022/05/28 17:02:58;;;;;;;12.17;5.57;;;26.50;44.00;;;;;;4863921;29;90130;-68
2022/05/28 17:05:26;;;;;;;10.03;5.73;;;26.50;44.00;;;;;;4861173;29;88714;-68
2022/05/28 17:07:54;;;;;;;12.60;5.40;;;26.50;44.00;;;;;;4847837;29;88547;-68
2022/05/28 17:10:22;;;;;;;9.27;5.33;;;26.50;43.90;;;;;;4843719;29;90688;-68
2022/05/28 17:12:52;;;;;;;9.83;5.13;;;26.50;44.00;;;;;;4844683;29;90194;-68
2022/05/28 17:15:20;;;;;;;11.13;5.63;;;26.50;43.90;;;;;;4844931;29;88960;-68
2022/05/28 17:17:48;;;;;;;10.67;5.13;;;26.40;43.90;;;;;;4844900;29;88597;-68
2022/05/28 17:20:16;;;;;;;7.73;4.90;;;26.40;43.90;;;;;;4844519;29;89242;-68
2022/05/28 17:22:45;;;;;;;9.43;5.10;;;26.40;43.80;;;;;;4851986;29;90605;-74
2022/05/28 17:25:15;;;;;;;8.63;4.57;;;26.40;43.80;;;;;;4858520;29;90052;-74
2022/05/28 17:27:43;;;;;;;11.83;5.27;;;26.40;43.80;;;;;;4857307;29;88696;-75
2022/05/28 17:30:14;;;;;;;8.30;4.50;;;26.40;43.80;;;;;;4851900;29;90676;-74
2022/05/28 17:32:42;;;;;;;12.53;5.37;;;26.40;43.80;;;;;;4853274;29;90132;-74
2022/05/28 17:35:10;;;;;;;10.80;4.37;;;26.40;43.80;;;;;;4852670;29;88723;-74
2022/05/28 17:37:41;;;;;;;8.63;4.77;;;26.40;43.70;;;;;;4856413;29;89286;-74
2022/05/28 17:40:10;;;;;;;9.07;4.63;;;26.40;43.70;;;;;;4853517;29;90534;-74
2022/05/28 17:42:39;;;;;;;8.77;4.53;;;26.40;43.70;;;;;;4853945;29;90048;-74
2022/05/28 17:45:09;;;;;;;8.53;4.70;;;26.30;43.60;;;;;;4857255;29;88878;-74
2022/05/28 17:47:39;;;;;;;11.10;5.13;;;26.30;43.50;;;;;;4859939;29;88717;-74
2022/05/28 17:50:08;;;;;;;6.53;4.20;;;26.30;43.50;;;;;;4859846;29;90707;-74
2022/05/28 17:52:36;;;;;;;8.60;4.23;;;26.30;43.50;;;;;;4855241;29;90200;-74
2022/05/28 17:55:09;;;;;;;9.17;4.43;;;26.30;43.50;;;;;;4853126;29;88860;-74
2022/05/28 17:57:38;;;;;;;8.70;5.47;;;26.30;43.40;;;;;;4853993;29;89958;-74
2022/05/28 18:00:08;;;;;;;8.93;5.80;;;26.30;43.40;;;;;;4856761;29;90863;-74
2022/05/28 18:02:37;;;;;;;9.87;5.47;;;26.30;43.40;;;;;;4855053;29;92395;-74
2022/05/28 18:05:07;;;;;;;12.50;6.60;;;26.30;43.30;;;;;;4855994;29;90275;-74
2022/05/28 18:07:35;;;;;;;12.37;6.43;;;26.30;43.30;;;;;;4854106;29;88581;-73
2022/05/28 18:10:03;;;;;;;10.53;6.43;;;26.30;43.30;;;;;;4860136;29;90679;-74
2022/05/28 18:12:31;;;;;;;9.67;5.83;;;26.30;43.20;;;;;;4855466;29;92585;-74
2022/05/28 18:14:59;;;;;;;11.53;6.17;;;26.30;43.30;;;;;;4854203;29;92826;-74
2022/05/28 18:17:29;;;;;;;15.13;8.00;;;26.30;43.30;;;;;;4857131;29;88521;-74
2022/05/28 18:19:57;;;;;;;14.17;7.90;;;26.30;43.20;;;;;;4860673;29;91000;-74
2022/05/28 18:22:26;;;;;;;13.93;7.33;;;26.20;43.20;;;;;;4856428;29;90048;-74
2022/05/28 18:24:54;;;;;;;15.17;8.73;;;26.20;43.20;;;;;;4858466;29;89954;-74
2022/05/28 18:27:24;;;;;;;15.03;8.33;;;26.20;43.20;;;;;;4853202;29;88519;-74
2022/05/28 18:29:52;;;;;;;16.20;8.87;;;26.20;43.20;;;;;;4855544;29;90826;-74
2022/05/28 18:32:20;;;;;;;13.57;8.40;;;26.20;43.10;;;;;;4861399;29;89076;-74
2022/05/28 18:34:48;;;;;;;14.13;8.73;;;26.20;43.10;;;;;;4857908;29;89195;-74
2022/05/28 18:37:16;;;;;;;17.10;8.07;;;26.20;43.70;;;;;;4863221;29;88905;-74
2022/05/28 18:39:49;;;;;;;13.47;8.83;;;26.10;43.00;;;;;;4859564;29;90791;-74
2022/05/28 18:42:19;;;;;;;13.03;8.23;;;26.10;43.00;;;;;;4863120;29;90485;-73
2022/05/28 18:44:48;;;;;;;19.10;8.80;;;26.10;43.00;;;;;;4854149;29;88982;-73
2022/05/28 18:47:16;;;;;;;14.57;9.37;;;26.10;43.00;;;;;;4854475;29;88494;-74
2022/05/28 18:49:44;;;;;;;16.80;8.47;;;26.10;43.00;;;;;;4863119;29;90503;-74
2022/05/28 18:52:12;;;;;;;14.63;8.40;;;26.10;43.00;;;;;;4862049;29;90207;-74
2022/05/28 18:54:41;;;;;;;13.50;7.97;;;26.10;43.00;;;;;;4860484;29;88889;-73
2022/05/28 18:57:12;;;;;;;13.53;8.87;;;26.10;43.00;;;;;;4859273;29;88810;-73
2022/05/28 18:59:40;;;;;;;15.23;8.63;;;26.10;43.00;;;;;;4860664;29;90451;-73
2022/05/28 19:02:09;;;;;;;15.97;8.30;;;26.10;43.00;;;;;;4854478;29;90188;-73
2022/05/28 19:04:39;;;;;;;13.20;8.07;;;26.00;43.00;;;;;;4854605;29;92604;-73
2022/05/28 19:07:09;;;;;;;15.97;9.47;;;26.10;43.20;;;;;;4852985;29;89502;-73
2022/05/28 19:09:38;;;;;;;14.20;8.67;;;26.00;43.10;;;;;;4855572;29;90586;-74
2022/05/28 19:12:08;;;;;;;13.87;8.03;;;26.00;43.20;;;;;;4851558;29;90180;-74
2022/05/28 19:14:57;;;;;;;12.40;7.40;;;26.00;43.20;;;;;;4856369;29;88833;-74
2022/05/28 19:17:26;;;;;;;12.53;8.13;;;26.00;43.30;;;;;;4849905;29;88765;-74
2022/05/28 19:19:54;;;;;;;16.07;7.17;;;26.00;43.20;;;;;;4857680;29;90764;-73
2022/05/28 19:22:23;;;;;;;13.17;7.57;;;26.00;43.30;;;;;;4856806;29;88584;-74
2022/05/28 19:27:33;;;;;;;17.57;8.47;;;26.00;43.20;;;;;;4856098;29;88692;-74
2022/05/28 19:30:06;;;;;;;11.33;8.70;;;26.00;43.20;;;;;;4856157;29;90771;-74
2022/05/28 19:32:36;;;;;;;15.87;8.77;;;25.90;43.20;;;;;;4856658;29;89842;-74
2022/05/28 19:35:06;;;;;;;15.17;8.77;;;25.90;43.10;;;;;;4857273;29;89508;-74
2022/05/28 19:37:34;;;;;;;18.87;10.00;;;25.90;43.80;;;;;;4858820;29;88825;-74
2022/05/28 19:40:02;;;;;;;16.57;9.40;;;25.90;43.10;;;;;;4856521;29;90790;-75
2022/05/28 19:42:32;;;;;;;14.17;8.73;;;25.90;43.20;;;;;;4848459;29;89374;-70
2022/05/28 19:45:00;;;;;;;13.13;9.17;;;25.90;43.10;;;;;;4846318;29;88912;-70
2022/05/28 19:47:30;;;;;;;15.40;9.03;;;25.90;43.10;;;;;;4846541;29;88596;-69
2022/05/28 19:53:48;;;;;;;20.77;11.13;;;25.80;43.10;;;;;;4861887;29;88528;-70
2022/05/28 19:56:16;;;;;;;29.53;16.27;;;25.80;43.10;;;;;;4861995;29;89903;-70
2022/05/28 19:58:44;;;;;;;18.50;11.47;;;25.80;43.10;;;;;;4868757;28;88981;-71
2022/05/28 20:01:12;;;;;;;33.93;18.10;;;25.80;43.20;;;;;;4883739;28;90680;-70
2022/05/28 20:03:42;;;;;;;40.57;25.13;;;25.80;43.20;;;;;;4883875;28;89252;-70
2022/05/28 20:06:10;;;;;;;42.40;23.10;;;25.70;43.10;;;;;;4878419;28;90535;-71
2022/05/28 20:08:39;;;;;;;68.97;32.73;;;25.80;43.10;;;;;;4864929;29;88554;-70
2022/05/28 20:11:07;;;;;;;54.43;27.30;;;25.80;43.10;;;;;;4865100;29;93851;-70
2022/05/28 20:13:35;;;;;;;63.83;35.20;;;25.80;43.10;;;;;;4863981;28;88980;-73
2022/05/28 20:16:03;;;;;;;62.20;33.00;;;25.80;43.10;;;;;;4864000;28;89045;-73
2022/05/28 20:18:32;;;;;;;67.80;35.60;;;25.80;43.10;;;;;;4853164;29;88595;-72
2022/05/28 20:21:01;;;;;;;59.87;33.87;;;25.80;43.10;;;;;;4848671;29;90834;-70
2022/05/28 20:23:30;;;;;;;65.77;34.67;;;25.70;43.10;;;;;;4850943;28;88621;-70
2022/05/28 20:25:59;;;;;;;70.90;36.27;;;25.70;43.10;;;;;;4845794;29;90643;-73
2022/05/28 20:28:27;;;;;;;64.53;35.93;;;25.70;43.10;;;;;;4846140;29;88714;-70
2022/05/28 20:30:55;;;;;;;70.83;37.50;;;25.70;43.10;;;;;;4857614;29;89777;-70
2022/05/28 20:33:24;;;;;;;81.03;36.07;;;25.70;43.10;;;;;;4853568;28;89858;-70
2022/05/28 20:35:55;;;;;;;66.60;35.57;;;25.70;43.10;;;;;;4852061;29;91787;-70
2022/05/28 20:38:25;;;;;;;66.00;35.03;;;25.70;43.20;;;;;;4861508;29;88491;-70
2022/05/28 20:40:53;;;;;;;70.83;38.03;;;25.60;43.10;;;;;;4859572;29;88661;-73
2022/05/28 20:43:21;;;;;;;80.07;37.83;;;25.60;43.10;;;;;;4859052;28;89567;-73
2022/05/28 20:45:57;;;;;;;69.93;36.83;;;25.60;43.20;;;;;;4850378;28;91437;-70
2022/05/28 20:48:33;;;;;;;66.30;35.80;;;25.60;43.20;;;;;;4848915;29;90068;-70
2022/05/28 20:51:02;;;;;;;63.83;35.80;;;25.60;43.20;;;;;;4843194;29;90293;-71
2022/05/28 20:53:34;;;;;;;64.27;35.20;;;25.60;43.20;;;;;;4847911;28;88731;-70
2022/05/28 20:56:04;;;;;;;57.97;34.23;;;25.60;43.20;;;;;;4849962;29;88565;-70
2022/05/28 20:58:38;;;;;;;57.70;32.93;;;25.60;43.20;;;;;;4846133;29;88621;-70
2022/05/28 21:01:08;;;;;;;64.20;33.63;;;25.50;43.20;;;;;;4844600;29;88978;-70
2022/05/28 21:03:37;;;;;;;71.83;34.00;;;25.50;43.20;;;;;;4846926;29;93127;-71
2022/05/28 21:06:07;;;;;;;60.63;32.30;;;25.50;43.20;;;;;;4853119;28;88644;-70
2022/05/28 21:08:37;;;;;;;48.87;28.53;;;25.50;43.20;;;;;;4846820;29;88662;-70
2022/05/28 21:11:08;;;;;;;58.87;30.77;;;25.50;43.30;;;;;;4846392;28;93040;-70
2022/05/28 21:13:37;;;;;;;55.03;30.27;;;25.50;43.20;;;;;;4846253;29;90264;-73
2022/05/28 21:16:06;;;;;;;53.57;29.87;;;25.50;43.30;;;;;;4843816;29;90533;-70
2022/05/28 21:18:37;;;;;;;54.10;29.33;;;25.50;43.30;;;;;;4846658;29;88500;-73
2022/05/28 21:21:14;;;;;;;55.30;28.97;;;25.50;43.30;;;;;;4849286;28;90707;-73
2022/05/28 21:23:44;;;;;;;49.07;26.23;;;25.50;43.40;;;;;;4845609;29;91871;-73
2022/05/28 21:31:43;;;;;;;47.60;25.33;;;25.50;43.40;;;;;;4853585;29;90042;-72
2022/05/28 21:34:11;;;;;;;46.43;25.90;;;25.50;43.40;;;;;;4850774;28;91526;-73
2022/05/28 21:36:39;;;;;;;43.33;25.33;;;25.40;43.40;;;;;;4859115;29;91459;-71
2022/05/28 21:39:09;;;;;;;36.77;23.07;;;25.50;43.50;;;;;;4863938;29;88419;-70
2022/05/28 21:41:37;;;;;;;39.93;23.43;;;25.40;43.40;;;;;;4854892;29;90638;-69
2022/05/28 21:44:05;;;;;;;41.17;23.43;;;25.40;44.10;;;;;;4856451;29;90977;-70
2022/05/28 21:46:35;;;;;;;39.83;22.23;;;25.40;43.40;;;;;;4848603;29;89050;-70
2022/05/28 21:49:04;;;;;;;45.87;23.77;;;25.40;43.40;;;;;;4850569;28;88501;-71
2022/05/28 21:51:32;;;;;;;38.90;22.57;;;25.40;43.40;;;;;;4853337;29;90621;-71
2022/05/28 21:54:00;;;;;;;37.73;21.77;;;25.40;43.40;;;;;;4856032;28;89667;-70
2022/05/28 21:56:29;;;;;;;34.70;21.73;;;25.40;43.40;;;;;;4853817;29;91189;-70
2022/05/28 21:58:58;;;;;;;36.20;21.17;;;25.40;43.40;;;;;;4852042;28;88629;-71
2022/05/28 22:01:27;;;;;;;38.67;22.43;;;25.30;43.30;;;;;;4846900;29;90500;-71
2022/05/28 22:03:56;;;;;;;36.37;20.63;;;25.30;43.30;;;;;;4845224;29;92132;-70
2022/05/28 22:06:24;;;;;;;36.43;21.07;;;25.30;43.30;;;;;;4849014;28;88793;-70
2022/05/28 22:08:52;;;;;;;36.93;20.53;;;25.30;43.30;;;;;;4849175;29;88699;-71
2022/05/28 22:11:20;;;;;;;31.03;20.40;;;25.30;43.30;;;;;;4845948;29;90632;-70
2022/05/28 22:13:50;;;;;;;32.10;19.43;;;25.30;43.30;;;;;;4845959;29;92806;-70
2022/05/28 22:16:20;;;;;;;32.60;19.43;;;25.30;43.40;;;;;;4845547;29;88528;-70
2022/05/28 22:18:49;;;;;;;30.40;18.97;;;25.30;43.40;;;;;;4846181;29;89157;-70
2022/05/28 22:21:17;;;;;;;27.80;18.07;;;25.30;43.40;;;;;;4851349;28;90667;-70
2022/05/28 22:23:46;;;;;;;27.10;17.17;;;25.30;43.50;;;;;;4865161;29;90021;-70
2022/05/28 22:26:14;;;;;;;29.70;18.23;;;25.30;43.50;;;;;;4865479;29;89829;-70
2022/05/28 22:28:44;;;;;;;27.03;17.97;;;25.20;43.40;;;;;;4866043;29;88495;-70
2022/05/28 22:31:17;;;;;;;27.20;17.27;;;25.20;44.10;;;;;;4866154;29;93751;-69
2022/05/28 22:33:46;;;;;;;27.47;17.30;;;25.20;43.50;;;;;;4866678;29;88886;-70
2022/05/28 22:36:14;;;;;;;27.03;17.43;;;25.20;43.50;;;;;;4865686;29;90096;-70
2022/05/28 22:38:42;;;;;;;26.80;16.57;;;25.30;43.50;;;;;;4866708;28;88650;-70
2022/05/28 22:41:10;;;;;;;23.70;14.83;;;25.20;44.10;;;;;;4866050;29;89346;-70
2022/05/28 22:43:39;;;;;;;25.97;14.77;;;25.20;43.50;;;;;;4865651;28;88961;-70
2022/05/28 22:46:07;;;;;;;22.77;14.67;;;25.20;43.50;;;;;;4864853;29;89046;-70
2022/05/28 22:48:37;;;;;;;23.57;15.27;;;25.20;43.40;;;;;;4865265;28;88650;-69
2022/05/28 22:51:06;;;;;;;21.00;12.80;;;25.20;43.40;;;;;;4865546;29;90626;-70
2022/05/28 22:53:36;;;;;;;26.07;14.37;;;25.20;43.40;;;;;;4865292;29;88973;-70
2022/05/28 22:56:08;;;;;;;25.83;13.50;;;25.20;43.40;;;;;;4883230;28;89483;-69
2022/05/28 22:58:36;;;;;;;22.00;13.23;;;25.20;43.40;;;;;;4884063;28;88623;-70
2022/05/28 23:01:04;;;;;;;19.20;11.87;;;25.10;43.30;;;;;;4884733;28;93247;-70
2022/05/28 23:03:33;;;;;;;22.83;12.47;;;25.10;43.30;;;;;;4884447;28;90120;-70
2022/05/28 23:06:02;;;;;;;17.60;11.67;;;25.10;43.30;;;;;;4884293;28;88908;-70
2022/05/28 23:08:30;;;;;;;22.00;11.40;;;25.10;43.30;;;;;;4885246;28;88416;-70
2022/05/28 23:10:58;;;;;;;19.83;11.57;;;25.10;43.30;;;;;;4882883;28;91116;-69
2022/05/28 23:13:26;;;;;;;20.53;12.27;;;25.10;43.30;;;;;;4884156;28;90114;-69
2022/05/28 23:15:54;;;;;;;16.10;10.43;;;25.10;43.30;;;;;;4884318;28;90365;-70
2022/05/28 23:18:25;;;;;;;20.20;11.33;;;25.10;43.30;;;;;;4884468;28;88509;-70
2022/05/28 23:20:53;;;;;;;17.80;10.47;;;25.10;43.30;;;;;;4883999;28;90742;-70
2022/05/28 23:26:08;;;;;;;17.17;10.83;;;25.00;43.20;;;;;;4883773;28;88394;-70
2022/05/28 23:28:37;;;;;;;15.47;9.47;;;25.00;43.30;;;;;;4882888;28;88424;-69
2022/05/28 23:31:06;;;;;;;14.50;9.07;;;25.00;43.40;;;;;;4885040;28;89928;-69
2022/05/28 23:33:35;;;;;;;12.73;9.17;;;25.00;43.40;;;;;;4877839;28;91401;-70
2022/05/28 23:36:04;;;;;;;15.87;8.60;;;25.00;43.40;;;;;;4865885;29;88977;-70
2022/05/28 23:38:33;;;;;;;11.57;8.27;;;25.00;43.40;;;;;;4865902;29;88472;-70
2022/05/28 23:41:01;;;;;;;11.10;7.93;;;25.00;43.50;;;;;;4865831;29;90777;-70
2022/05/28 23:43:29;;;;;;;12.37;7.60;;;25.00;43.50;;;;;;4866034;29;93187;-70
2022/05/28 23:45:58;;;;;;;9.63;6.73;;;25.00;43.50;;;;;;4865785;29;89031;-70
2022/05/28 23:48:26;;;;;;;12.30;8.20;;;25.00;43.50;;;;;;4877563;28;88555;-70
2022/05/28 23:50:55;;;;;;;9.57;7.77;;;25.00;43.40;;;;;;4884921;28;93579;-70
2022/05/28 23:53:27;;;;;;;11.13;6.87;;;24.90;43.40;;;;;;4884213;28;90521;-73